createdAt,value
2019-02-24T00:01:04.727Z,51.25
2019-02-24T00:03:38.656Z,49.75
2019-02-24T00:06:12.733Z,54.65
2019-02-24T00:08:47.038Z,57.95
2019-02-24T00:11:21.305Z,53.98
2019-02-24T00:13:55.615Z,54.00
2019-02-24T00:16:30.001Z,52.48
2019-02-24T00:19:04.138Z,52.83
2019-02-24T00:21:38.644Z,54.67
2019-02-24T00:24:12.766Z,53.28
2019-02-24T00:26:47.154Z,54.93
2019-02-24T00:29:21.420Z,52.15
2019-02-24T00:31:55.853Z,51.28
2019-02-24T00:34:30.074Z,49.85
2019-02-24T00:37:04.223Z,51.05
2019-02-24T00:39:38.338Z,53.52
2019-02-24T00:42:12.629Z,53.78
2019-02-24T00:44:46.717Z,54.67
2019-02-24T00:47:21.262Z,51.10
2019-02-24T00:49:55.319Z,55.58
2019-02-24T00:52:29.806Z,54.90
2019-02-24T00:55:03.809Z,56.77
2019-02-24T00:57:38.107Z,58.70
2019-02-24T01:00:13.035Z,49.83
2019-02-24T01:02:47.828Z,52.88
2019-02-24T01:05:22.258Z,55.65
2019-02-24T01:07:56.284Z,56.83
2019-02-24T01:10:31.343Z,54.58
2019-02-24T01:13:05.725Z,56.05
2019-02-24T01:15:39.936Z,55.50
2019-02-24T01:18:13.930Z,58.08
2019-02-24T01:20:48.210Z,56.15
2019-02-24T01:23:22.733Z,54.65
2019-02-24T01:25:56.817Z,57.62
2019-02-24T01:28:31.252Z,54.25
2019-02-24T01:31:06.665Z,54.13
2019-02-24T01:33:41.093Z,54.67
2019-02-24T01:36:15.268Z,61.08
2019-02-24T01:38:50.314Z,57.35
2019-02-24T01:41:24.751Z,58.90
2019-02-24T01:43:59.168Z,55.03
2019-02-24T01:46:33.337Z,58.05
2019-02-24T01:49:07.535Z,57.30
2019-02-24T01:51:41.992Z,59.90
2019-02-24T01:54:17.138Z,58.55
2019-02-24T01:56:51.399Z,57.50
2019-02-24T01:59:25.665Z,59.93
2019-02-24T02:01:59.973Z,58.15
2019-02-24T02:04:34.073Z,58.25
2019-02-24T02:07:08.153Z,59.88
2019-02-24T02:09:42.334Z,60.43
2019-02-24T02:12:18.887Z,58.48
2019-02-24T02:14:52.793Z,58.42
2019-02-24T02:17:27.161Z,60.35
2019-02-24T02:20:02.503Z,62.15
2019-02-24T02:22:36.533Z,58.17
2019-02-24T02:25:11.817Z,59.88
2019-02-24T02:27:46.112Z,61.05
2019-02-24T02:30:20.157Z,61.45
2019-02-24T02:32:54.347Z,58.05
2019-02-24T02:35:28.566Z,62.65
2019-02-24T02:38:02.884Z,62.95
2019-02-24T02:40:37.148Z,65.95
2019-02-24T02:43:11.923Z,63.05
2019-02-24T02:45:46.253Z,69.58
2019-02-24T02:48:20.412Z,63.60
2019-02-24T02:50:54.617Z,65.10
2019-02-24T02:53:28.733Z,64.12
2019-02-24T02:56:03.736Z,68.30
2019-02-24T02:58:37.859Z,65.80
2019-02-24T03:01:12.257Z,69.25
2019-02-24T03:03:46.388Z,65.25
2019-02-24T03:06:38.852Z,70.85
2019-02-24T03:09:13.505Z,65.37
2019-02-24T03:11:47.430Z,65.40
2019-02-24T03:14:21.472Z,65.42
2019-02-24T03:16:55.629Z,65.83
2019-02-24T03:19:30.046Z,67.08
2019-02-24T03:22:04.368Z,63.63
2019-02-24T03:24:38.521Z,68.65
2019-02-24T03:27:12.671Z,66.92
2019-02-24T03:29:46.812Z,68.12
2019-02-24T03:32:20.941Z,71.75
2019-02-24T03:34:55.164Z,70.62
2019-02-24T03:37:29.766Z,68.10
2019-02-24T03:40:04.006Z,73.07
2019-02-24T03:42:38.112Z,68.62
2019-02-24T03:45:12.310Z,74.75
2019-02-24T03:47:46.668Z,68.22
2019-02-24T03:50:20.923Z,73.00
2019-02-24T03:52:55.100Z,70.10
2019-02-24T03:55:29.462Z,71.07
2019-02-24T03:58:03.528Z,73.90
2019-02-24T04:00:37.603Z,68.65
2019-02-24T04:03:12.076Z,69.75
2019-02-24T04:05:46.361Z,73.45
2019-02-24T04:08:20.766Z,70.10
2019-02-24T04:10:55.045Z,69.17
2019-02-24T04:13:29.198Z,67.65
2019-02-24T04:16:03.250Z,73.28
2019-02-24T04:18:37.604Z,74.07
2019-02-24T04:21:11.862Z,69.97
2019-02-24T04:23:46.142Z,73.92
2019-02-24T04:26:21.322Z,71.72
2019-02-24T04:28:55.525Z,75.42
2019-02-24T04:31:30.054Z,72.30
2019-02-24T04:34:04.552Z,72.05
2019-02-24T04:36:38.513Z,72.03
2019-02-24T04:39:12.826Z,69.60
2019-02-24T04:41:47.467Z,66.15
2019-02-24T04:44:21.373Z,66.40
2019-02-24T04:46:55.433Z,66.65
2019-02-24T04:49:29.667Z,71.77
2019-02-24T04:52:03.871Z,71.20
2019-02-24T04:54:38.022Z,68.97
2019-02-24T04:57:12.395Z,71.67
2019-02-24T04:59:46.452Z,72.92
2019-02-24T05:02:20.564Z,74.97
2019-02-24T05:04:54.780Z,80.70
2019-02-24T05:07:29.122Z,72.30
2019-02-24T05:10:03.396Z,70.40
2019-02-24T05:12:37.830Z,68.70
2019-02-24T05:15:11.877Z,70.60
2019-02-24T05:17:46.130Z,83.17
2019-02-24T05:20:20.269Z,74.42
2019-02-24T05:22:54.939Z,72.35
2019-02-24T05:25:30.110Z,69.50
2019-02-24T05:28:04.378Z,67.03
2019-02-24T05:30:38.503Z,73.97
2019-02-24T05:33:12.523Z,68.22
2019-02-24T05:35:47.033Z,80.05
2019-02-24T05:38:21.356Z,71.67
2019-02-24T05:40:55.778Z,75.08
2019-02-24T05:43:31.066Z,78.55
2019-02-24T05:46:05.330Z,72.37
2019-02-24T05:48:39.486Z,71.20
2019-02-24T05:51:13.580Z,65.65
2019-02-24T05:53:47.446Z,78.87
2019-02-24T05:56:22.024Z,69.17
2019-02-24T05:58:56.230Z,73.30
2019-02-24T06:01:30.652Z,71.30
2019-02-24T06:04:04.768Z,70.70
2019-02-24T06:06:39.308Z,65.80
2019-02-24T06:09:13.479Z,63.98
2019-02-24T06:11:47.698Z,64.72
2019-02-24T06:14:21.903Z,68.50
2019-02-24T06:16:56.067Z,70.42
2019-02-24T06:19:30.321Z,69.35
2019-02-24T06:22:04.441Z,63.13
2019-02-24T06:24:38.479Z,64.82
2019-02-24T06:27:12.675Z,64.58
2019-02-24T06:29:47.018Z,63.35
2019-02-24T06:32:21.320Z,65.40
2019-02-24T06:34:55.674Z,63.15
2019-02-24T06:37:30.131Z,65.62
2019-02-24T06:40:04.554Z,63.75
2019-02-24T06:42:39.066Z,63.13
2019-02-24T06:45:13.508Z,59.38
2019-02-24T06:47:48.245Z,57.17
2019-02-24T06:50:23.305Z,61.08
2019-02-24T06:52:57.364Z,59.90
2019-02-24T06:55:31.800Z,59.95
2019-02-24T06:58:07.784Z,61.50
2019-02-24T07:00:42.114Z,57.55
2019-02-24T07:03:17.647Z,54.70
2019-02-24T07:05:52.569Z,54.85
2019-02-24T07:08:28.122Z,55.40
2019-02-24T07:11:02.244Z,57.25
2019-02-24T07:13:36.685Z,58.10
2019-02-24T07:16:10.880Z,57.78
2019-02-24T07:18:45.225Z,54.23
2019-02-24T07:21:19.274Z,52.55
2019-02-24T07:23:53.403Z,56.35
2019-02-24T07:26:27.683Z,54.08
2019-02-24T07:29:01.969Z,57.05
2019-02-24T07:31:36.009Z,51.63
2019-02-24T07:34:10.037Z,54.35
2019-02-24T07:36:44.354Z,52.25
2019-02-24T07:39:18.489Z,50.65
2019-02-24T07:41:52.510Z,53.02
2019-02-24T07:44:26.492Z,50.83
2019-02-24T07:47:00.747Z,51.45
2019-02-24T07:49:35.088Z,55.08
2019-02-24T07:52:09.340Z,51.65
2019-02-24T07:54:43.676Z,50.95
2019-02-24T07:57:17.949Z,48.65
2019-02-24T07:59:52.228Z,48.95
2019-02-24T08:02:26.348Z,52.80
2019-02-24T08:05:00.568Z,53.48
2019-02-24T08:07:34.680Z,54.77
2019-02-24T08:10:09.353Z,50.92
2019-02-24T08:12:43.521Z,50.45
2019-02-24T08:15:17.674Z,46.13
2019-02-24T08:17:51.827Z,53.98
2019-02-24T08:20:25.926Z,45.70
2019-02-24T08:23:00.134Z,50.23
2019-02-24T08:25:34.473Z,48.55
2019-02-24T08:28:08.445Z,48.08
2019-02-24T08:30:44.165Z,48.92
2019-02-24T08:33:18.339Z,49.83
2019-02-24T08:35:52.681Z,50.03
2019-02-24T08:38:26.732Z,47.85
2019-02-24T08:41:00.801Z,48.00
2019-02-24T08:43:35.769Z,47.48
2019-02-24T08:46:09.856Z,47.67
2019-02-24T08:48:44.064Z,48.28
2019-02-24T08:51:18.022Z,49.00
2019-02-24T08:53:52.237Z,44.00
2019-02-24T08:56:26.734Z,48.78
2019-02-24T08:59:01.905Z,47.40
2019-02-24T09:01:36.284Z,47.62
2019-02-24T09:04:11.107Z,46.45
2019-02-24T09:06:45.405Z,47.30
2019-02-24T09:09:19.570Z,48.95
2019-02-24T09:11:53.613Z,45.15
2019-02-24T09:14:27.587Z,46.37
2019-02-24T09:17:01.905Z,44.13
2019-02-24T09:19:37.115Z,47.75
2019-02-24T09:22:12.488Z,45.85
2019-02-24T09:24:46.799Z,50.50
2019-02-24T09:27:20.994Z,46.45
2019-02-24T09:29:55.083Z,45.58
2019-02-24T09:32:29.762Z,45.33
2019-02-24T09:35:07.214Z,45.90
2019-02-24T09:37:41.461Z,46.73
2019-02-24T09:40:15.758Z,44.80
2019-02-24T09:42:49.950Z,49.05
2019-02-24T09:45:24.057Z,45.03
2019-02-24T09:47:58.149Z,44.25
2019-02-24T09:50:32.370Z,44.38
2019-02-24T09:53:09.484Z,49.23
2019-02-24T09:55:43.604Z,42.60
2019-02-24T09:58:17.717Z,46.42
2019-02-24T10:00:52.027Z,46.05
2019-02-24T10:03:27.212Z,45.80
2019-02-24T10:06:01.245Z,43.68
2019-02-24T10:08:35.494Z,42.55
2019-02-24T10:11:10.291Z,41.42
2019-02-24T10:13:44.754Z,40.92
2019-02-24T10:16:19.253Z,46.48
2019-02-24T10:18:53.242Z,48.15
2019-02-24T10:21:27.787Z,43.78
2019-02-24T10:24:01.828Z,46.35
2019-02-24T10:26:36.397Z,40.43
2019-02-24T10:29:10.675Z,44.18
2019-02-24T10:31:44.927Z,41.98
2019-02-24T10:34:20.158Z,42.73
2019-02-24T10:36:54.287Z,42.13
2019-02-24T10:39:29.988Z,43.20
2019-02-24T10:42:04.341Z,43.85
2019-02-24T10:44:38.600Z,44.20
2019-02-24T10:47:12.813Z,45.33
2019-02-24T10:49:48.126Z,39.05
2019-02-24T10:52:22.341Z,43.98
2019-02-24T10:54:56.525Z,44.65
2019-02-24T10:57:30.929Z,42.78
2019-02-24T11:00:05.149Z,41.53
2019-02-24T11:02:39.687Z,41.48
2019-02-24T11:05:14.328Z,43.63
2019-02-24T11:07:48.557Z,43.25
2019-02-24T11:10:22.996Z,42.95
2019-02-24T11:12:58.301Z,44.85
2019-02-24T11:15:32.494Z,42.05
2019-02-24T11:18:07.004Z,44.23
2019-02-24T11:20:41.511Z,40.85
2019-02-24T11:23:15.718Z,39.48
2019-02-24T11:25:50.144Z,44.42
2019-02-24T11:28:24.400Z,40.63
2019-02-24T11:30:59.605Z,45.38
2019-02-24T11:33:33.965Z,41.20
2019-02-24T11:36:07.991Z,39.55
2019-02-24T11:38:43.335Z,41.83
2019-02-24T11:41:17.632Z,39.73
2019-02-24T11:43:52.224Z,38.00
2019-02-24T11:46:26.547Z,41.48
2019-02-24T11:49:00.718Z,42.35
2019-02-24T11:51:34.719Z,41.30
2019-02-24T11:54:09.099Z,40.88
2019-02-24T11:56:43.177Z,37.63
2019-02-24T11:59:17.436Z,40.70
2019-02-24T12:01:53.489Z,40.73
2019-02-24T12:04:27.984Z,41.20
2019-02-24T12:07:01.770Z,37.63
2019-02-24T12:09:36.184Z,38.70
2019-02-24T12:12:10.321Z,36.45
2019-02-24T12:14:45.034Z,36.35
2019-02-24T12:17:19.274Z,37.63
2019-02-24T12:19:53.783Z,38.08
2019-02-24T12:22:34.650Z,37.17
2019-02-24T12:25:12.218Z,39.95
2019-02-24T12:27:46.511Z,38.40
2019-02-24T12:30:24.170Z,39.83
2019-02-24T12:33:00.637Z,37.03
2019-02-24T12:35:34.838Z,41.77
2019-02-24T12:38:09.217Z,37.53
2019-02-24T12:40:44.336Z,37.83
2019-02-24T12:43:19.789Z,39.08
2019-02-24T12:45:56.062Z,37.40
2019-02-24T12:48:30.364Z,37.65
2019-02-24T12:51:04.757Z,36.35
2019-02-24T12:53:38.819Z,39.40
2019-02-24T12:56:14.846Z,36.80
2019-02-24T12:58:48.907Z,36.23
2019-02-24T13:01:23.359Z,38.00
2019-02-24T13:03:57.803Z,37.73
2019-02-24T13:06:32.371Z,36.13
2019-02-24T13:09:10.799Z,35.75
2019-02-24T13:11:46.094Z,36.28
2019-02-24T13:14:20.352Z,36.83
2019-02-24T13:16:54.543Z,35.63
2019-02-24T13:19:28.791Z,37.95
2019-02-24T13:22:02.994Z,38.98
2019-02-24T13:24:37.110Z,34.70
2019-02-24T13:27:11.109Z,35.92
2019-02-24T13:29:45.454Z,36.53
2019-02-24T13:32:19.769Z,36.80
2019-02-24T13:34:53.971Z,35.85
2019-02-24T13:37:27.947Z,35.08
2019-02-24T13:40:02.185Z,37.42
2019-02-24T13:42:37.714Z,36.60
2019-02-24T13:45:14.058Z,35.60
2019-02-24T13:47:48.124Z,34.63
2019-02-24T13:50:23.136Z,37.20
2019-02-24T13:52:57.349Z,35.92
2019-02-24T13:55:31.608Z,34.03
2019-02-24T13:58:05.488Z,36.55
2019-02-24T14:00:40.736Z,36.00
2019-02-24T14:03:14.951Z,35.73
2019-02-24T14:05:49.320Z,34.85
2019-02-24T14:08:23.521Z,35.70
2019-02-24T14:10:57.497Z,36.20
2019-02-24T14:13:32.138Z,36.48
2019-02-24T14:16:06.320Z,35.05
2019-02-24T14:18:40.313Z,36.85
2019-02-24T14:21:14.377Z,34.65
2019-02-24T14:23:48.531Z,35.60
2019-02-24T14:26:23.672Z,37.73
2019-02-24T14:28:57.597Z,36.77
2019-02-24T14:31:31.756Z,35.50
2019-02-24T14:34:06.160Z,36.17
2019-02-24T14:36:40.409Z,35.75
2019-02-24T14:39:14.715Z,35.80
2019-02-24T14:41:48.726Z,37.98
2019-02-24T14:44:23.512Z,39.90
2019-02-24T14:46:57.747Z,38.67
2019-02-24T14:49:32.060Z,41.40
2019-02-24T14:52:07.239Z,37.65
2019-02-24T14:54:41.537Z,36.40
2019-02-24T14:57:16.691Z,40.10
2019-02-24T14:59:51.827Z,39.40
2019-02-24T15:02:26.048Z,37.65
2019-02-24T15:05:00.308Z,41.90
2019-02-24T15:07:35.525Z,39.35
2019-02-24T15:10:11.067Z,41.13
2019-02-24T15:12:46.030Z,36.38
2019-02-24T15:15:21.174Z,47.15
2019-02-24T15:17:56.761Z,41.73
2019-02-24T15:20:31.179Z,41.45
2019-02-24T15:23:06.723Z,44.03
2019-02-24T15:25:41.041Z,41.00
2019-02-24T15:28:15.028Z,42.75
2019-02-24T15:30:49.064Z,39.10
2019-02-24T15:33:23.240Z,45.80
2019-02-24T15:35:57.440Z,42.65
2019-02-24T15:38:31.513Z,46.60
2019-02-24T15:41:05.813Z,49.13
2019-02-24T15:43:39.889Z,45.63
2019-02-24T15:46:14.272Z,41.18
2019-02-24T15:48:48.834Z,44.98
2019-02-24T15:51:23.333Z,47.38
2019-02-24T15:53:57.454Z,48.58
2019-02-24T15:56:31.742Z,50.90
2019-02-24T15:59:05.968Z,53.73
2019-02-24T16:01:40.375Z,54.50
2019-02-24T16:04:14.514Z,49.77
2019-02-24T16:06:49.622Z,51.23
2019-02-24T16:09:23.661Z,55.38
2019-02-24T16:11:58.004Z,56.73
2019-02-24T16:14:31.972Z,55.55
2019-02-24T16:17:10.413Z,57.00
2019-02-24T16:19:44.577Z,57.85
2019-02-24T16:22:18.892Z,60.20
2019-02-24T16:24:53.072Z,53.73
2019-02-24T16:27:27.222Z,54.55
2019-02-24T16:30:01.512Z,55.50
2019-02-24T16:32:35.455Z,49.10
2019-02-24T16:35:10.397Z,58.90
2019-02-24T16:37:45.579Z,59.58
2019-02-24T16:40:20.884Z,63.83
2019-02-24T16:42:55.201Z,60.85
2019-02-24T16:45:29.511Z,56.50
2019-02-24T16:48:03.936Z,57.60
2019-02-24T16:50:38.200Z,58.92
2019-02-24T16:53:14.093Z,59.75
2019-02-24T16:55:48.304Z,62.05
2019-02-24T16:58:22.311Z,58.08
2019-02-24T17:00:56.536Z,62.88
2019-02-24T17:03:30.936Z,59.15
2019-02-24T17:06:06.182Z,71.62
2019-02-24T17:08:40.213Z,69.62
2019-02-24T17:11:14.850Z,63.78
2019-02-24T17:13:49.090Z,62.75
2019-02-24T17:16:23.040Z,61.55
2019-02-24T17:18:57.266Z,61.65
2019-02-24T17:21:31.575Z,66.02
2019-02-24T17:24:05.892Z,61.33
2019-02-24T17:26:39.976Z,64.55
2019-02-24T17:29:14.095Z,64.82
2019-02-24T17:31:48.361Z,64.05
2019-02-24T17:34:22.482Z,68.15
2019-02-24T17:36:56.916Z,67.47
2019-02-24T17:39:31.019Z,62.38
2019-02-24T17:42:05.038Z,69.12
2019-02-24T17:44:39.215Z,67.78
2019-02-24T17:47:14.462Z,67.47
2019-02-24T17:49:48.503Z,70.32
2019-02-24T17:52:22.834Z,72.85
2019-02-24T17:54:57.088Z,72.00
2019-02-24T17:57:31.326Z,74.25
2019-02-24T18:00:05.450Z,70.28
2019-02-24T18:02:39.948Z,73.30
2019-02-24T18:05:14.033Z,68.80
2019-02-24T18:07:48.160Z,71.75
2019-02-24T18:10:22.369Z,76.87
2019-02-24T18:12:56.629Z,67.50
2019-02-24T18:15:30.668Z,79.00
2019-02-24T18:18:04.814Z,75.87
2019-02-24T18:20:39.034Z,72.92
2019-02-24T18:23:13.206Z,77.15
2019-02-24T18:25:47.440Z,78.02
2019-02-24T18:28:21.811Z,73.78
2019-02-24T18:30:56.276Z,80.25
2019-02-24T18:33:30.517Z,72.17
2019-02-24T18:36:04.713Z,76.65
2019-02-24T18:38:39.156Z,77.72
2019-02-24T18:41:13.425Z,75.57
2019-02-24T18:43:47.762Z,77.12
2019-02-24T18:46:22.026Z,73.85
2019-02-24T18:48:56.495Z,74.15
2019-02-24T18:51:30.838Z,76.30
2019-02-24T18:54:05.440Z,78.57
2019-02-24T18:56:39.621Z,76.67
2019-02-24T18:59:13.816Z,74.55
2019-02-24T19:01:47.925Z,80.20
2019-02-24T19:04:22.138Z,75.20
2019-02-24T19:06:58.145Z,78.65
2019-02-24T19:09:32.705Z,77.90
2019-02-24T19:12:06.947Z,78.95
2019-02-24T19:14:41.218Z,79.97
2019-02-24T19:17:15.573Z,82.37
2019-02-24T19:19:49.859Z,78.40
2019-02-24T19:22:24.124Z,81.85
2019-02-24T19:24:58.045Z,78.85
2019-02-24T19:27:32.085Z,79.80
2019-02-24T19:30:06.635Z,78.85
2019-02-24T19:32:41.337Z,81.97
2019-02-24T19:35:15.988Z,76.92
2019-02-24T19:37:50.074Z,80.00
2019-02-24T19:40:24.539Z,77.53
2019-02-24T19:42:58.814Z,80.83
2019-02-24T19:45:33.131Z,85.10
2019-02-24T19:48:07.123Z,79.30
2019-02-24T19:50:41.659Z,80.77
2019-02-24T19:53:15.899Z,82.65
2019-02-24T19:55:50.225Z,79.03
2019-02-24T19:58:24.546Z,87.62
2019-02-24T20:00:58.767Z,79.25
2019-02-24T20:03:32.912Z,81.45
2019-02-24T20:06:07.102Z,83.42
2019-02-24T20:08:41.211Z,84.28
2019-02-24T20:11:15.414Z,83.07
2019-02-24T20:13:49.679Z,82.20
2019-02-24T20:16:23.909Z,82.67
2019-02-24T20:18:58.002Z,82.35
2019-02-24T20:21:32.401Z,85.50
2019-02-24T20:24:06.676Z,85.30
2019-02-24T20:26:40.850Z,82.47
2019-02-24T20:29:15.248Z,78.97
2019-02-24T20:31:49.478Z,80.20
2019-02-24T20:34:25.848Z,86.80
2019-02-24T20:36:59.141Z,82.97
2019-02-24T20:39:33.215Z,82.33
2019-02-24T20:42:07.400Z,84.25
2019-02-24T20:44:41.652Z,94.20
2019-02-24T20:47:15.698Z,93.58
2019-02-24T20:49:49.876Z,91.00
2019-02-24T20:52:23.767Z,86.30
2019-02-24T20:54:57.948Z,84.15
2019-02-24T20:57:32.175Z,86.22
2019-02-24T21:00:06.507Z,82.10
2019-02-24T21:02:42.117Z,87.27
2019-02-24T21:05:16.471Z,82.33
2019-02-24T21:07:50.697Z,90.53
2019-02-24T21:10:24.883Z,87.33
2019-02-24T21:12:59.412Z,89.17
2019-02-24T21:15:33.779Z,89.55
2019-02-24T21:18:08.192Z,86.25
2019-02-24T21:20:42.382Z,88.00
2019-02-24T21:23:16.864Z,89.32
2019-02-24T21:25:50.958Z,84.28
2019-02-24T21:28:25.484Z,88.90
2019-02-24T21:30:59.521Z,85.95
2019-02-24T21:33:33.657Z,89.97
2019-02-24T21:36:07.871Z,85.62
2019-02-24T21:38:42.412Z,91.22
2019-02-24T21:41:16.359Z,87.72
2019-02-24T21:43:51.819Z,90.92
2019-02-24T21:46:25.983Z,89.95
2019-02-24T21:49:00.399Z,85.22
2019-02-24T21:51:34.701Z,89.70
2019-02-24T21:54:09.434Z,87.95
2019-02-24T21:56:43.621Z,93.12
2019-02-24T21:59:17.901Z,88.42
2019-02-24T22:01:51.975Z,89.92
2019-02-24T22:04:26.328Z,90.47
2019-02-24T22:07:00.604Z,89.32
2019-02-24T22:09:34.787Z,88.80
2019-02-24T22:12:08.824Z,88.35
2019-02-24T22:14:45.247Z,87.88
2019-02-24T22:17:19.535Z,90.62
2019-02-24T22:19:53.803Z,88.30
2019-02-24T22:22:28.149Z,84.75
2019-02-24T22:25:02.186Z,88.20
2019-02-24T22:27:36.486Z,91.20
2019-02-24T22:30:12.110Z,89.40
2019-02-24T22:32:46.308Z,92.17
2019-02-24T22:35:20.769Z,92.10
2019-02-24T22:37:54.869Z,90.22
2019-02-24T22:40:29.045Z,90.87
2019-02-24T22:43:03.286Z,90.28
2019-02-24T22:45:38.302Z,91.95
2019-02-24T22:48:12.482Z,88.92
2019-02-24T22:50:46.646Z,97.33
2019-02-24T22:53:20.768Z,93.17
2019-02-24T22:55:54.918Z,93.82
2019-02-24T22:58:29.226Z,92.95
2019-02-24T23:01:18.663Z,98.78
2019-02-24T23:03:54.712Z,93.10
2019-02-24T23:06:28.929Z,94.92
2019-02-24T23:09:03.051Z,95.75
2019-02-24T23:11:38.559Z,98.30
2019-02-24T23:14:12.626Z,96.57
2019-02-24T23:16:46.682Z,96.10
2019-02-24T23:19:20.673Z,97.47
2019-02-24T23:21:54.682Z,96.30
2019-02-24T23:24:28.945Z,95.07
2019-02-24T23:27:03.132Z,95.60
2019-02-24T23:29:37.268Z,96.22
2019-02-24T23:32:11.350Z,102.82
2019-02-24T23:34:45.755Z,98.47
2019-02-24T23:37:19.841Z,98.07
2019-02-24T23:39:53.975Z,104.55
2019-02-24T23:42:28.271Z,101.12
2019-02-24T23:45:10.002Z,99.00
2019-02-24T23:47:38.828Z,101.92
2019-02-24T23:50:13.341Z,99.00
2019-02-24T23:52:47.547Z,101.80
2019-02-24T23:55:21.833Z,106.40
2019-02-24T23:57:56.319Z,100.67
